createdAt,value
2024-05-09T00:01:56.144Z,12.32
2024-05-09T00:04:21.525Z,12.30
2024-05-09T00:06:46.879Z,12.31
2024-05-09T00:09:12.298Z,12.31
2024-05-09T00:11:40.568Z,12.21
2024-05-09T00:14:06.119Z,12.13
2024-05-09T00:16:31.481Z,12.09
2024-05-09T00:18:56.853Z,12.10
2024-05-09T00:21:22.333Z,12.11
2024-05-09T00:23:47.644Z,12.08
2024-05-09T00:26:13.021Z,12.04
2024-05-09T00:28:41.186Z,12.05
2024-05-09T00:31:06.935Z,11.99
2024-05-09T00:33:32.421Z,12.00
2024-05-09T00:35:57.822Z,11.93
2024-05-09T00:38:23.203Z,11.87
2024-05-09T00:40:48.529Z,11.84
2024-05-09T00:43:15.153Z,11.80
2024-05-09T00:45:44.023Z,11.78
2024-05-09T00:48:11.086Z,11.71
2024-05-09T00:50:38.233Z,11.61
2024-05-09T00:53:04.280Z,11.58
2024-05-09T00:55:30.194Z,11.52
2024-05-09T00:57:56.073Z,11.49
2024-05-09T01:00:27.367Z,11.46
2024-05-09T01:03:03.773Z,11.37
2024-05-09T01:05:30.007Z,11.33
2024-05-09T01:07:55.426Z,11.31
2024-05-09T01:10:27.718Z,11.30
2024-05-09T01:12:57.574Z,11.25
2024-05-09T01:15:23.050Z,11.16
2024-05-09T01:17:48.682Z,11.07
2024-05-09T01:20:22.860Z,11.06
2024-05-09T01:22:53.964Z,11.02
2024-05-09T01:25:21.926Z,11.01
2024-05-09T01:27:47.066Z,10.92
2024-05-09T01:30:17.302Z,10.89
2024-05-09T01:32:46.731Z,10.83
2024-05-09T01:35:12.222Z,10.80
2024-05-09T01:37:37.518Z,10.75
2024-05-09T01:40:03.562Z,10.81
2024-05-09T01:42:31.570Z,10.74
2024-05-09T01:44:56.997Z,10.65
2024-05-09T01:47:22.494Z,10.61
2024-05-09T01:49:48.015Z,10.65
2024-05-09T01:52:13.395Z,10.71
2024-05-09T01:54:38.771Z,10.61
2024-05-09T01:57:04.254Z,10.59
2024-05-09T01:59:32.561Z,10.54
2024-05-09T02:01:59.846Z,10.48
2024-05-09T02:04:25.366Z,10.42
2024-05-09T02:06:50.770Z,10.34
2024-05-09T02:09:18.393Z,10.31
2024-05-09T02:11:45.850Z,10.32
2024-05-09T02:14:11.467Z,10.33
2024-05-09T02:16:39.527Z,10.29
2024-05-09T02:19:04.758Z,10.28
2024-05-09T02:21:34.144Z,10.23
2024-05-09T02:23:59.468Z,10.24
2024-05-09T02:26:24.835Z,10.22
2024-05-09T02:28:50.274Z,10.22
2024-05-09T02:31:15.872Z,10.17
2024-05-09T02:33:44.085Z,10.10
2024-05-09T02:36:10.390Z,10.06
2024-05-09T02:38:33.244Z,10.00
2024-05-09T02:40:58.692Z,9.95
2024-05-09T02:43:21.477Z,9.91
2024-05-09T02:45:46.971Z,9.88
2024-05-09T02:48:11.041Z,9.84
2024-05-09T02:50:40.568Z,9.89
2024-05-09T02:53:06.473Z,9.92
2024-05-09T02:55:29.262Z,9.98
2024-05-09T02:57:54.668Z,9.99
2024-05-09T03:00:22.808Z,9.97
2024-05-09T03:02:52.620Z,9.92
2024-05-09T03:05:15.486Z,9.96
2024-05-09T03:07:45.429Z,9.87
2024-05-09T03:10:18.052Z,9.75
2024-05-09T03:12:47.788Z,9.72
2024-05-09T03:15:10.492Z,9.67
2024-05-09T03:17:36.121Z,9.68
2024-05-09T03:19:59.100Z,9.66
2024-05-09T03:22:24.478Z,9.64
2024-05-09T03:24:49.922Z,9.79
2024-05-09T03:27:15.622Z,9.68
2024-05-09T03:29:38.353Z,9.65
2024-05-09T03:32:03.829Z,9.56
2024-05-09T03:34:26.740Z,9.50
2024-05-09T03:36:52.203Z,9.45
2024-05-09T03:39:18.009Z,9.57
2024-05-09T03:41:46.006Z,9.51
2024-05-09T03:44:08.597Z,9.42
2024-05-09T03:46:33.945Z,9.37
2024-05-09T03:48:57.271Z,9.34
2024-05-09T03:51:22.648Z,9.34
2024-05-09T03:53:45.367Z,9.38
2024-05-09T03:56:10.830Z,9.42
2024-05-09T03:58:37.612Z,9.43
2024-05-09T04:01:03.060Z,9.42
2024-05-09T04:03:26.405Z,9.46
2024-05-09T04:05:52.010Z,9.51
2024-05-09T04:08:15.690Z,9.56
2024-05-09T04:10:41.276Z,9.59
2024-05-09T04:13:04.640Z,9.50
2024-05-09T04:15:32.793Z,9.46
2024-05-09T04:17:56.136Z,9.42
2024-05-09T04:20:32.822Z,9.41
2024-05-09T04:23:00.988Z,9.41
2024-05-09T04:25:26.443Z,9.40
2024-05-09T04:27:49.144Z,9.42
2024-05-09T04:30:21.728Z,9.41
2024-05-09T04:32:56.244Z,9.44
2024-05-09T04:35:22.464Z,9.50
2024-05-09T04:37:45.227Z,9.56
2024-05-09T04:40:21.019Z,9.69
2024-05-09T04:42:51.109Z,9.73
2024-05-09T04:45:16.494Z,9.84
2024-05-09T04:47:39.373Z,9.89
2024-05-09T04:50:11.880Z,9.99
2024-05-09T04:52:40.091Z,10.05
2024-05-09T04:55:02.775Z,10.07
2024-05-09T04:57:28.066Z,10.12
2024-05-09T04:59:51.757Z,10.20
2024-05-09T05:02:17.221Z,10.29
2024-05-09T05:04:40.162Z,10.38
2024-05-09T05:07:08.105Z,10.44
2024-05-09T05:09:30.703Z,10.51
2024-05-09T05:11:56.212Z,10.59
2024-05-09T05:14:19.068Z,10.69
2024-05-09T05:16:44.527Z,10.79
2024-05-09T05:19:10.134Z,10.88
2024-05-09T05:21:39.763Z,10.99
2024-05-09T05:24:05.741Z,11.11
2024-05-09T05:26:31.057Z,11.19
2024-05-09T05:28:53.931Z,11.29
2024-05-09T05:31:19.290Z,11.39
2024-05-09T05:33:42.236Z,11.44
2024-05-09T05:36:08.416Z,11.52
2024-05-09T05:38:31.275Z,11.67
2024-05-09T05:40:59.411Z,11.68
2024-05-09T05:43:22.159Z,11.79
2024-05-09T05:45:47.800Z,11.87
2024-05-09T05:48:11.552Z,11.86
2024-05-09T05:50:38.488Z,11.96
2024-05-09T05:53:01.832Z,12.08
2024-05-09T05:55:27.317Z,12.23
2024-05-09T05:57:52.679Z,12.42
2024-05-09T06:00:28.600Z,12.59
2024-05-09T06:02:53.356Z,12.62
2024-05-09T06:05:18.908Z,12.64
2024-05-09T06:07:41.725Z,12.68
2024-05-09T06:10:14.240Z,12.61
2024-05-09T06:12:43.853Z,12.69
2024-05-09T06:15:11.987Z,12.94
2024-05-09T06:17:34.837Z,12.97
2024-05-09T06:20:00.285Z,12.98
2024-05-09T06:22:23.136Z,13.07
2024-05-09T06:24:48.777Z,13.10
2024-05-09T06:27:11.564Z,13.26
2024-05-09T06:29:39.642Z,13.58
2024-05-09T06:32:05.641Z,13.54
2024-05-09T06:34:31.385Z,13.57
2024-05-09T06:36:54.296Z,13.38
2024-05-09T06:39:19.592Z,13.44
2024-05-09T06:41:42.489Z,13.80
2024-05-09T06:44:08.109Z,14.09
2024-05-09T06:46:30.878Z,13.86
2024-05-09T06:48:59.096Z,13.79
2024-05-09T06:51:22.942Z,13.87
2024-05-09T06:53:48.234Z,13.96
2024-05-09T06:56:11.046Z,14.05
2024-05-09T06:58:36.425Z,13.90
2024-05-09T07:00:59.255Z,14.12
2024-05-09T07:03:24.807Z,14.59
2024-05-09T07:05:50.338Z,14.72
2024-05-09T07:08:15.980Z,14.63
2024-05-09T07:10:38.871Z,15.22
2024-05-09T07:13:04.371Z,15.29
2024-05-09T07:15:27.184Z,15.12
2024-05-09T07:17:52.835Z,15.10
2024-05-09T07:20:22.963Z,15.31
2024-05-09T07:22:55.899Z,15.66
2024-05-09T07:25:18.670Z,16.10
2024-05-09T07:27:44.032Z,16.03
2024-05-09T07:30:09.419Z,15.64
2024-05-09T07:32:37.013Z,15.88
2024-05-09T07:34:59.908Z,15.93
2024-05-09T07:37:25.317Z,16.09
2024-05-09T07:39:50.650Z,16.41
2024-05-09T07:42:16.008Z,16.75
2024-05-09T07:44:38.882Z,16.28
2024-05-09T07:48:14.174Z,16.36
2024-05-09T07:51:32.576Z,17.59
2024-05-09T07:53:32.745Z,17.65
2024-05-09T07:55:18.120Z,18.91
2024-05-09T07:57:43.613Z,20.10
2024-05-09T08:00:08.276Z,20.37
2024-05-09T08:02:36.996Z,21.16
2024-05-09T08:05:00.052Z,21.72
2024-05-09T08:07:26.560Z,23.28
2024-05-09T08:09:49.343Z,25.57
2024-05-09T08:12:18.184Z,26.22
2024-05-09T08:14:40.924Z,27.78
2024-05-09T08:17:06.523Z,26.92
2024-05-09T08:19:29.397Z,27.81
2024-05-09T08:21:54.821Z,27.60
2024-05-09T08:24:17.616Z,25.72
2024-05-09T08:26:42.982Z,27.83
2024-05-09T08:29:08.272Z,29.54
2024-05-09T08:31:33.817Z,31.36
2024-05-09T08:33:57.371Z,32.58
2024-05-09T08:36:22.734Z,32.41
2024-05-09T08:38:45.517Z,32.77
2024-05-09T08:41:10.851Z,30.47
2024-05-09T08:43:33.777Z,30.08
2024-05-09T08:46:02.264Z,31.13
2024-05-09T08:48:25.542Z,29.90
2024-05-09T08:50:55.142Z,29.53
2024-05-09T08:53:18.488Z,30.38
2024-05-09T08:55:44.540Z,30.81
2024-05-09T08:58:07.664Z,31.91
2024-05-09T09:00:37.025Z,28.44
2024-05-09T09:03:04.301Z,30.70
2024-05-09T09:05:33.698Z,28.14
2024-05-09T09:07:56.886Z,28.47
2024-05-09T09:10:29.728Z,28.57
2024-05-09T09:12:58.010Z,27.10
2024-05-09T09:15:23.498Z,27.38
2024-05-09T09:17:54.514Z,26.62
2024-05-09T09:20:29.098Z,24.70
2024-05-09T09:22:58.754Z,24.70
2024-05-09T09:25:24.092Z,27.80
2024-05-09T09:27:46.990Z,27.15
2024-05-09T09:30:27.345Z,25.81
2024-05-09T09:32:58.593Z,29.23
2024-05-09T09:35:23.974Z,30.71
2024-05-09T09:37:49.393Z,32.29
2024-05-09T09:40:15.601Z,30.86
2024-05-09T09:42:44.423Z,32.35
2024-05-09T09:45:07.370Z,33.08
2024-05-09T09:47:33.439Z,33.92
2024-05-09T09:49:56.876Z,35.06
2024-05-09T09:52:24.914Z,34.44
2024-05-09T09:54:48.658Z,35.36
2024-05-09T09:57:14.216Z,35.71
2024-05-09T09:59:37.094Z,33.61
2024-05-09T10:02:02.599Z,29.95
2024-05-09T10:04:25.704Z,28.53
2024-05-09T10:06:53.970Z,26.04
2024-05-09T10:09:19.626Z,23.18
2024-05-09T10:11:49.255Z,24.14
2024-05-09T10:14:20.410Z,24.85
2024-05-09T10:16:46.543Z,25.05
2024-05-09T10:19:09.406Z,22.80
2024-05-09T10:21:35.887Z,22.49
2024-05-09T10:23:59.797Z,21.85
2024-05-09T10:26:38.421Z,21.42
2024-05-09T10:29:03.295Z,21.22
2024-05-09T10:31:32.255Z,21.86
2024-05-09T10:33:55.735Z,21.67
2024-05-09T10:36:22.741Z,23.16
2024-05-09T10:38:45.547Z,24.58
2024-05-09T10:41:11.485Z,24.95
2024-05-09T10:43:38.904Z,27.75
2024-05-09T10:46:04.446Z,31.45
2024-05-09T10:48:27.348Z,30.74
2024-05-09T10:50:52.890Z,29.35
2024-05-09T10:53:19.104Z,32.09
2024-05-09T10:55:44.489Z,32.95
2024-05-09T10:58:17.187Z,34.54
2024-05-09T11:00:45.386Z,30.35
2024-05-09T11:03:11.182Z,33.61
2024-05-09T11:05:36.830Z,34.62
2024-05-09T11:07:59.731Z,36.25
2024-05-09T11:10:31.601Z,35.50
2024-05-09T11:12:56.915Z,34.91
2024-05-09T11:15:22.286Z,36.48
2024-05-09T11:17:47.816Z,30.87
2024-05-09T11:20:19.653Z,29.63
2024-05-09T11:22:49.165Z,30.52
2024-05-09T11:25:14.703Z,31.89
2024-05-09T11:27:37.591Z,33.50
2024-05-09T11:30:04.190Z,35.22
2024-05-09T11:32:29.451Z,35.98
2024-05-09T11:34:57.728Z,34.39
2024-05-09T11:37:20.532Z,32.48
2024-05-09T11:39:46.000Z,31.68
2024-05-09T11:42:08.772Z,30.46
2024-05-09T11:44:34.103Z,28.79
2024-05-09T11:46:57.272Z,27.54
2024-05-09T11:49:25.457Z,27.37
2024-05-09T11:51:52.213Z,24.75
2024-05-09T11:54:18.088Z,27.25
2024-05-09T11:56:40.783Z,27.37
2024-05-09T11:59:06.464Z,27.18
2024-05-09T12:01:29.464Z,26.50
2024-05-09T12:03:55.048Z,26.23
2024-05-09T12:06:17.967Z,25.03
2024-05-09T12:08:46.093Z,25.02
2024-05-09T12:11:09.535Z,26.48
2024-05-09T12:13:34.923Z,27.34
2024-05-09T12:15:58.176Z,28.49
2024-05-09T12:18:23.614Z,29.58
2024-05-09T12:20:46.352Z,29.04
2024-05-09T12:23:11.787Z,29.01
2024-05-09T12:25:51.391Z,31.09
2024-05-09T12:28:18.572Z,31.04
2024-05-09T12:30:41.922Z,28.20
2024-05-09T12:33:08.725Z,28.73
2024-05-09T12:35:32.204Z,28.30
2024-05-09T12:37:57.536Z,29.45
2024-05-09T12:40:26.854Z,30.91
2024-05-09T12:43:02.975Z,28.44
2024-05-09T12:45:25.738Z,29.95
2024-05-09T12:47:51.584Z,29.43
2024-05-09T12:50:22.303Z,26.28
2024-05-09T12:52:55.041Z,26.54
2024-05-09T12:55:17.929Z,26.87
2024-05-09T12:57:43.384Z,25.66
2024-05-09T13:00:20.198Z,26.19
2024-05-09T13:02:49.249Z,25.34
2024-05-09T13:05:14.022Z,25.99
2024-05-09T13:07:39.541Z,25.64
2024-05-09T13:10:02.668Z,23.83
2024-05-09T13:12:29.411Z,23.51
2024-05-09T13:14:52.331Z,25.65
2024-05-09T13:17:20.395Z,25.53
2024-05-09T13:19:43.286Z,23.68
2024-05-09T13:22:08.754Z,23.02
2024-05-09T13:24:31.761Z,23.15
2024-05-09T13:26:57.323Z,23.48
2024-05-09T13:29:20.203Z,23.01
2024-05-09T13:31:45.578Z,23.41
2024-05-09T13:34:11.012Z,25.51
2024-05-09T13:36:36.461Z,28.07
2024-05-09T13:38:59.311Z,26.60
2024-05-09T13:41:24.599Z,26.94
2024-05-09T13:43:47.296Z,26.38
2024-05-09T13:46:12.805Z,26.01
2024-05-09T13:48:35.632Z,25.20
2024-05-09T13:51:03.776Z,24.87
2024-05-09T13:53:26.604Z,24.65
2024-05-09T13:55:51.996Z,24.12
2024-05-09T13:58:14.912Z,23.47
2024-05-09T14:00:46.599Z,23.38
2024-05-09T14:03:11.657Z,23.60
2024-05-09T14:05:37.293Z,23.03
2024-05-09T14:08:02.869Z,23.27
2024-05-09T14:10:31.245Z,23.74
2024-05-09T14:12:55.051Z,22.79
2024-05-09T14:15:20.526Z,22.45
2024-05-09T14:17:43.221Z,22.52
2024-05-09T14:20:13.975Z,22.27
2024-05-09T14:22:37.048Z,22.14
2024-05-09T14:25:06.195Z,22.46
2024-05-09T14:27:29.775Z,22.74
2024-05-09T14:29:55.116Z,22.93
2024-05-09T14:32:17.864Z,23.44
2024-05-09T14:34:43.394Z,23.29
2024-05-09T14:37:06.485Z,23.74
2024-05-09T14:39:31.923Z,24.24
2024-05-09T14:41:57.264Z,23.70
2024-05-09T14:44:22.557Z,24.65
2024-05-09T14:46:46.005Z,24.98
2024-05-09T14:49:12.687Z,25.14
2024-05-09T14:51:35.668Z,25.12
2024-05-09T14:54:01.049Z,25.31
2024-05-09T14:56:23.852Z,25.52
2024-05-09T14:58:52.015Z,24.91
2024-05-09T15:01:14.775Z,24.91
2024-05-09T15:03:40.500Z,25.20
2024-05-09T15:06:03.418Z,25.30
2024-05-09T15:08:28.946Z,25.96
2024-05-09T15:10:52.280Z,26.21
2024-05-09T15:13:18.075Z,26.13
2024-05-09T15:15:43.912Z,26.59
2024-05-09T15:18:09.628Z,25.71
2024-05-09T15:20:36.089Z,26.03
2024-05-09T15:23:03.238Z,24.85
2024-05-09T15:25:26.286Z,24.60
2024-05-09T15:27:51.761Z,24.15
2024-05-09T15:30:18.121Z,24.79
2024-05-09T15:32:48.651Z,25.40
2024-05-09T15:35:11.506Z,24.81
2024-05-09T15:37:36.886Z,24.53
2024-05-09T15:39:59.758Z,24.09
2024-05-09T15:42:25.136Z,24.13
2024-05-09T15:44:52.796Z,24.36
2024-05-09T15:47:18.166Z,24.11
2024-05-09T15:49:43.637Z,22.92
2024-05-09T15:52:09.560Z,23.35
2024-05-09T15:54:32.465Z,23.31
2024-05-09T15:56:57.810Z,23.36
2024-05-09T15:59:20.659Z,23.46
2024-05-09T16:01:46.544Z,23.52
2024-05-09T16:04:10.577Z,22.52
2024-05-09T16:06:38.888Z,22.88
2024-05-09T16:09:01.772Z,23.08
2024-05-09T16:11:27.573Z,23.17
2024-05-09T16:13:50.423Z,23.17
2024-05-09T16:16:15.815Z,22.91
2024-05-09T16:18:38.618Z,22.88
2024-05-09T16:21:04.056Z,22.77
2024-05-09T16:23:29.558Z,22.64
2024-05-09T16:25:54.955Z,22.64
2024-05-09T16:28:18.323Z,22.72
2024-05-09T16:30:43.860Z,22.51
2024-05-09T16:33:06.915Z,22.57
2024-05-09T16:35:32.498Z,22.47
2024-05-09T16:37:55.233Z,22.30
2024-05-09T16:40:30.366Z,22.44
2024-05-09T16:43:00.236Z,22.14
2024-05-09T16:45:25.653Z,22.06
2024-05-09T16:47:48.463Z,22.01
2024-05-09T16:50:19.070Z,22.14
2024-05-09T16:52:45.291Z,21.98
2024-05-09T16:55:10.871Z,22.16
2024-05-09T16:57:36.227Z,22.24
2024-05-09T17:00:01.741Z,22.14
2024-05-09T17:02:24.853Z,21.99
2024-05-09T17:04:50.893Z,22.19
2024-05-09T17:07:13.841Z,22.17
2024-05-09T17:09:39.183Z,22.31
2024-05-09T17:12:04.920Z,22.13
2024-05-09T17:14:32.877Z,22.11
2024-05-09T17:16:58.359Z,21.90
2024-05-09T17:19:21.164Z,21.79
2024-05-09T17:21:46.670Z,21.87
2024-05-09T17:24:09.743Z,21.65
2024-05-09T17:26:35.266Z,21.64
2024-05-09T17:28:58.629Z,21.78
2024-05-09T17:31:26.732Z,21.48
2024-05-09T17:33:49.729Z,21.60
2024-05-09T17:36:15.336Z,21.54
2024-05-09T17:38:38.123Z,21.65
2024-05-09T17:41:03.675Z,21.47
2024-05-09T17:43:26.687Z,21.30
2024-05-09T17:45:52.193Z,21.34
2024-05-09T17:48:17.659Z,21.14
2024-05-09T17:50:43.116Z,21.08
2024-05-09T17:53:06.820Z,21.06
2024-05-09T17:55:32.495Z,21.06
2024-05-09T17:57:55.603Z,20.87
2024-05-09T18:00:29.304Z,20.76
2024-05-09T18:03:00.001Z,20.76
2024-05-09T18:05:29.003Z,20.64
2024-05-09T18:07:51.785Z,20.53
2024-05-09T18:10:25.194Z,20.48
2024-05-09T18:12:52.498Z,20.45
2024-05-09T18:15:17.846Z,20.41
2024-05-09T18:17:40.690Z,20.21
2024-05-09T18:20:08.946Z,20.21
2024-05-09T18:22:34.730Z,20.12
2024-05-09T18:25:00.265Z,20.04
2024-05-09T18:27:23.530Z,19.99
2024-05-09T18:29:48.839Z,19.99
2024-05-09T18:32:11.529Z,19.95
2024-05-09T18:34:36.896Z,19.94
2024-05-09T18:37:02.885Z,19.86
2024-05-09T18:39:31.856Z,19.82
2024-05-09T18:41:54.564Z,19.71
2024-05-09T18:44:20.014Z,19.64
2024-05-09T18:46:42.781Z,19.56
2024-05-09T18:49:08.715Z,19.44
2024-05-09T18:51:32.035Z,19.31
2024-05-09T18:53:57.351Z,19.13
2024-05-09T18:56:22.684Z,18.96
2024-05-09T18:58:47.994Z,18.81
2024-05-09T19:01:11.152Z,18.69
2024-05-09T19:03:36.840Z,18.55
2024-05-09T19:05:59.965Z,18.46
2024-05-09T19:08:25.366Z,18.30
2024-05-09T19:10:48.302Z,18.15
2024-05-09T19:13:16.701Z,18.05
2024-05-09T19:15:40.243Z,17.97
2024-05-09T19:18:06.691Z,17.83
2024-05-09T19:20:34.241Z,17.72
2024-05-09T19:23:01.380Z,17.60
2024-05-09T19:25:24.276Z,17.49
2024-05-09T19:27:49.655Z,17.34
2024-05-09T19:30:24.951Z,17.25
2024-05-09T19:32:58.974Z,17.16
2024-05-09T19:35:24.200Z,17.14
2024-05-09T19:37:51.471Z,17.07
2024-05-09T19:40:24.219Z,17.04
2024-05-09T19:42:54.220Z,17.03
2024-05-09T19:45:19.573Z,17.00
2024-05-09T19:47:45.250Z,16.92
2024-05-09T19:50:11.163Z,16.85
2024-05-09T19:52:41.963Z,16.84
2024-05-09T19:55:05.552Z,16.78
2024-05-09T19:57:30.895Z,16.66
2024-05-09T19:59:53.618Z,16.60
2024-05-09T20:02:21.912Z,16.53
2024-05-09T20:04:45.816Z,16.46
2024-05-09T20:07:11.497Z,16.44
2024-05-09T20:09:34.378Z,16.33
2024-05-09T20:11:59.691Z,16.23
2024-05-09T20:14:22.475Z,16.21
2024-05-09T20:16:47.818Z,16.14
2024-05-09T20:19:13.312Z,16.16
2024-05-09T20:21:44.349Z,16.08
2024-05-09T20:24:07.193Z,16.03
2024-05-09T20:26:32.526Z,15.95
2024-05-09T20:28:55.193Z,15.92
2024-05-09T20:31:22.863Z,15.89
2024-05-09T20:33:45.653Z,15.85
2024-05-09T20:36:13.806Z,15.82
2024-05-09T20:38:36.561Z,15.75
2024-05-09T20:41:02.033Z,15.76
2024-05-09T20:43:24.832Z,15.71
2024-05-09T20:45:50.307Z,15.69
2024-05-09T20:48:13.568Z,15.62
2024-05-09T20:50:41.661Z,15.60
2024-05-09T20:53:08.511Z,15.54
2024-05-09T20:55:33.909Z,15.53
2024-05-09T20:57:56.835Z,15.45
2024-05-09T21:00:29.808Z,15.35
2024-05-09T21:02:58.659Z,15.34
2024-05-09T21:05:24.266Z,15.26
2024-05-09T21:07:47.070Z,15.27
2024-05-09T21:10:19.535Z,15.25
2024-05-09T21:12:45.346Z,15.19
2024-05-09T21:15:10.937Z,15.15
2024-05-09T21:17:33.877Z,15.08
2024-05-09T21:19:59.234Z,15.13
2024-05-09T21:22:22.059Z,15.06
2024-05-09T21:24:47.699Z,15.05
2024-05-09T21:27:13.901Z,15.02
2024-05-09T21:29:39.294Z,14.95
2024-05-09T21:32:02.096Z,14.94
2024-05-09T21:34:29.874Z,14.94
2024-05-09T21:36:53.050Z,14.86
2024-05-09T21:39:18.355Z,14.85
2024-05-09T21:41:41.196Z,14.85
2024-05-09T21:44:09.096Z,14.78
2024-05-09T21:46:31.721Z,14.74
2024-05-09T21:48:58.134Z,14.73
2024-05-09T21:51:20.893Z,14.70
2024-05-09T21:53:46.232Z,14.69
2024-05-09T21:56:08.983Z,14.60
2024-05-09T21:58:34.340Z,14.60
2024-05-09T22:00:59.871Z,14.57
2024-05-09T22:03:25.591Z,14.48
2024-05-09T22:05:48.696Z,14.44
2024-05-09T22:08:14.055Z,14.46
2024-05-09T22:10:37.419Z,14.46
2024-05-09T22:13:03.207Z,14.34
2024-05-09T22:15:26.237Z,14.29
2024-05-09T22:17:54.699Z,14.15
2024-05-09T22:20:25.091Z,14.07
2024-05-09T22:22:55.052Z,13.98
2024-05-09T22:25:17.968Z,13.86
2024-05-09T22:27:43.447Z,13.75
2024-05-09T22:30:11.649Z,13.65
2024-05-09T22:32:40.320Z,13.59
2024-05-09T22:35:08.072Z,13.51
2024-05-09T22:37:33.491Z,13.46
2024-05-09T22:39:56.316Z,13.42
2024-05-09T22:42:21.713Z,13.36
2024-05-09T22:44:44.507Z,13.33
2024-05-09T22:47:09.979Z,13.27
2024-05-09T22:49:32.766Z,13.24
2024-05-09T22:52:00.702Z,13.21
2024-05-09T22:54:23.459Z,13.19
2024-05-09T22:56:49.113Z,13.15
2024-05-09T22:59:11.852Z,13.16
2024-05-09T23:01:37.248Z,13.18
2024-05-09T23:04:00.344Z,13.14
2024-05-09T23:06:25.853Z,13.13
2024-05-09T23:08:51.266Z,13.11
2024-05-09T23:11:16.733Z,13.11
2024-05-09T23:13:39.615Z,13.12
2024-05-09T23:16:05.136Z,13.12
2024-05-09T23:18:27.894Z,13.15
2024-05-09T23:20:53.315Z,13.13
2024-05-09T23:23:16.048Z,13.11
2024-05-09T23:25:44.192Z,13.10
2024-05-09T23:28:07.493Z,13.02
2024-05-09T23:30:37.893Z,13.02
2024-05-09T23:33:03.979Z,12.94
2024-05-09T23:35:29.563Z,12.89
2024-05-09T23:37:52.328Z,12.90
2024-05-09T23:40:19.124Z,12.85
2024-05-09T23:42:48.231Z,12.86
2024-05-09T23:45:13.736Z,12.87
2024-05-09T23:47:36.506Z,12.84
2024-05-09T23:50:03.740Z,12.79
2024-05-09T23:52:28.564Z,12.75
2024-05-09T23:54:53.942Z,12.69
2024-05-09T23:57:16.766Z,12.65
2024-05-09T23:59:44.684Z,12.64
